Time;durP1;ratioP1;P1;durP2;ratioP2;P2;SDS_P1;SDS_P2;PMS_P1;PMS_P2;Temp;Humidity;BMP_temperature;BMP_pressure;BME280_temperature;BME280_humidity;BME280_pressure;Samples;Min_cycle;Max_cycle;Signal;HPM_P1;HPM_P2
2022/01/10 00:01:07;;;;;;;34.78;7.57;;;2.10;99.90;;;;;;5115158;27;20055;-83
2022/01/10 00:03:33;;;;;;;24.38;5.93;;;2.10;99.90;;;;;;5132540;27;20055;-84
2022/01/10 00:05:59;;;;;;;30.90;7.57;;;2.10;99.90;;;;;;5131842;27;20223;-83
2022/01/10 00:08:25;;;;;;;26.52;7.10;;;2.40;99.90;;;;;;5132036;27;20047;-83
2022/01/10 00:10:51;;;;;;;21.13;6.25;;;2.20;99.90;;;;;;5115144;27;20627;-84
2022/01/10 00:13:18;;;;;;;24.05;6.53;;;1.90;99.90;;;;;;5115126;27;20047;-83
2022/01/10 00:15:46;;;;;;;30.52;6.85;;;1.90;99.90;;;;;;5114211;27;20403;-83
2022/01/10 00:18:12;;;;;;;25.23;6.32;;;1.80;99.90;;;;;;5132044;27;20055;-83
2022/01/10 00:20:38;;;;;;;24.98;7.10;;;1.80;99.90;;;;;;5115648;27;20071;-84
2022/01/10 00:23:04;;;;;;;23.10;5.97;;;1.80;99.90;;;;;;5130051;27;20074;-83
2022/01/10 00:25:30;;;;;;;;;;;2.50;99.90;;;;;;5132186;27;20123;-84
2022/01/10 00:27:56;;;;;;;21.38;6.60;;;1.80;99.90;;;;;;5131318;27;19927;-84
2022/01/10 00:30:24;;;;;;;21.30;6.45;;;1.70;99.90;;;;;;5131041;27;20059;-83
2022/01/10 00:32:50;;;;;;;20.05;6.55;;;1.70;99.90;;;;;;5131488;27;20503;-83
2022/01/10 00:35:16;;;;;;;18.77;6.32;;;1.70;99.90;;;;;;5098101;27;20078;-83
2022/01/10 00:37:43;;;;;;;22.85;6.10;;;1.60;99.90;;;;;;5131991;27;20082;-83
2022/01/10 00:40:11;;;;;;;23.55;6.88;;;1.60;99.90;;;;;;5130313;27;20641;-83
2022/01/10 00:42:38;;;;;;;21.20;7.13;;;1.50;99.90;;;;;;5111503;28;20051;-83
2022/01/10 00:45:13;;;;;;;22.60;6.47;;;1.50;99.90;;;;;;5091937;28;20150;-83
2022/01/10 00:47:39;;;;;;;24.27;7.63;;;1.50;99.90;;;;;;5110988;27;20135;-83
2022/01/10 00:50:05;;;;;;;19.88;6.30;;;1.50;99.90;;;;;;5110805;27;20665;-84
2022/01/10 00:52:31;;;;;;;;;;;1.40;99.90;;;;;;5118808;27;20051;-83
2022/01/10 00:54:57;;;;;;;21.40;6.43;;;1.30;99.90;;;;;;5094863;27;20300;-83
2022/01/10 00:57:22;;;;;;;23.08;7.45;;;1.30;99.90;;;;;;5113306;27;20097;-83
2022/01/10 00:59:48;;;;;;;24.90;6.55;;;1.30;99.90;;;;;;5109176;28;20058;-83
2022/01/10 01:02:14;;;;;;;32.15;6.95;;;1.30;99.90;;;;;;5129421;27;20474;-84
2022/01/10 01:04:39;;;;;;;27.05;7.22;;;1.30;99.90;;;;;;5132078;27;20053;-81
2022/01/10 01:07:05;;;;;;;24.80;7.43;;;1.30;99.90;;;;;;5128451;27;20108;-83
2022/01/10 01:09:32;;;;;;;24.92;7.10;;;1.20;99.90;;;;;;5103017;27;20216;-83
2022/01/10 01:17:34;;;;;;;28.30;7.25;;;1.10;99.90;;;;;;5051846;28;20098;-84
2022/01/10 01:25:12;;;;;;;22.83;7.20;;;1.00;99.90;;;;;;5095533;28;20136;-83
2022/01/10 01:27:40;;;;;;;21.42;6.45;;;1.00;99.90;;;;;;5097171;28;20479;-83
2022/01/10 01:30:07;;;;;;;22.83;7.07;;;1.00;99.90;;;;;;5088049;28;20047;-83
2022/01/10 01:32:33;;;;;;;27.05;7.22;;;0.90;99.90;;;;;;5090497;28;20470;-83
2022/01/10 01:35:04;;;;;;;28.42;7.10;;;0.90;99.90;;;;;;5073066;28;20048;-83
2022/01/10 01:37:30;;;;;;;34.75;6.57;;;0.80;99.90;;;;;;5104937;28;20583;-83
2022/01/10 01:39:57;;;;;;;21.38;6.40;;;0.80;99.90;;;;;;5113423;27;20074;-83
2022/01/10 01:42:35;;;;;;;30.63;7.07;;;1.10;99.90;;;;;;5129416;27;21929;-84
2022/01/10 01:45:04;;;;;;;30.92;8.80;;;0.70;99.90;;;;;;5124485;27;20051;-83
2022/01/10 01:47:29;;;;;;;25.27;8.30;;;0.70;99.90;;;;;;5130801;27;20054;-83
2022/01/10 01:49:58;;;;;;;44.17;10.43;;;0.70;99.90;;;;;;5113051;27;20677;-83
2022/01/10 01:52:24;;;;;;;25.90;8.43;;;0.70;99.90;;;;;;5096247;27;20054;-83
2022/01/10 01:54:50;;;;;;;;;;;1.10;99.90;;;;;;5130907;27;20134;-83
2022/01/10 01:57:16;;;;;;;25.70;9.10;;;1.40;99.90;;;;;;5113287;27;20006;-83
2022/01/10 01:59:41;;;;;;;35.50;10.45;;;1.60;99.90;;;;;;5095383;27;20074;-83
2022/01/10 02:02:07;;;;;;;26.85;10.02;;;0.80;99.90;;;;;;5130046;27;20475;-83
2022/01/10 02:04:33;;;;;;;28.67;10.43;;;0.90;99.90;;;;;;5113885;27;20043;-83
2022/01/10 02:06:58;;;;;;;30.70;10.90;;;0.90;99.90;;;;;;5113093;27;20058;-83
2022/01/10 02:09:24;;;;;;;39.05;11.13;;;0.80;99.90;;;;;;5111763;27;20046;-83
2022/01/10 02:11:50;;;;;;;27.40;10.00;;;0.80;99.90;;;;;;5113519;28;20087;-83
2022/01/10 02:14:16;;;;;;;38.33;11.80;;;0.80;99.90;;;;;;5128344;27;20072;-84
2022/01/10 02:16:45;;;;;;;33.33;10.57;;;1.10;99.90;;;;;;5113134;27;20054;-83
2022/01/10 02:19:11;;;;;;;40.97;10.13;;;0.80;99.90;;;;;;5130122;27;20051;-83
2022/01/10 02:21:38;;;;;;;37.88;11.57;;;1.10;99.90;;;;;;5113668;28;20047;-83
2022/01/10 02:24:05;;;;;;;33.10;10.32;;;1.30;99.90;;;;;;5129676;27;20089;-83
2022/01/10 02:26:32;;;;;;;29.98;9.60;;;0.80;99.90;;;;;;5113127;28;20062;-83
2022/01/10 02:28:58;;;;;;;36.13;11.45;;;1.30;99.90;;;;;;5125480;28;20035;-82
2022/01/10 02:31:24;;;;;;;40.35;11.10;;;0.70;99.90;;;;;;5129960;28;20642;-83
2022/01/10 02:33:51;;;;;;;37.30;10.95;;;0.70;99.90;;;;;;5130461;28;20135;-83
2022/01/10 02:36:25;;;;;;;38.38;11.52;;;0.70;99.90;;;;;;5112528;28;20056;-84
2022/01/10 02:38:57;;;;;;;40.90;11.73;;;0.70;99.90;;;;;;5130140;28;20078;-83
2022/01/10 02:41:28;;;;;;;48.00;12.88;;;0.60;99.90;;;;;;5115366;27;20059;-83
2022/01/10 02:43:56;;;;;;;30.58;10.60;;;1.10;99.90;;;;;;5133262;27;20061;-83
2022/01/10 02:46:23;;;;;;;29.63;10.52;;;0.60;99.90;;;;;;5133747;27;20065;-83
2022/01/10 02:48:49;;;;;;;35.08;10.77;;;0.70;99.90;;;;;;5116795;27;20043;-83
2022/01/10 02:51:15;;;;;;;;;;;0.60;99.90;;;;;;5134298;27;20127;-83
2022/01/10 02:53:41;;;;;;;35.00;11.07;;;0.50;99.90;;;;;;5134004;27;20002;-83
2022/01/10 02:56:06;;;;;;;38.35;11.45;;;1.10;99.90;;;;;;5133796;27;20047;-82
2022/01/10 02:58:32;;;;;;;35.95;12.13;;;0.40;99.90;;;;;;5116039;27;20055;-83
2022/01/10 03:00:59;;;;;;;31.13;11.00;;;0.50;99.90;;;;;;5134223;27;20039;-83
2022/01/10 03:03:29;;;;;;;;;;;0.60;99.90;;;;;;5133948;27;20062;-83
2022/01/10 03:05:55;;;;;;;28.35;9.43;;;0.40;99.90;;;;;;5134436;27;19924;-83
2022/01/10 03:08:21;;;;;;;19.95;9.65;;;0.40;99.90;;;;;;5133754;27;20042;-83
2022/01/10 03:10:46;;;;;;;29.00;10.68;;;0.40;99.90;;;;;;5114901;27;20392;-83
2022/01/10 03:13:12;;;;;;;34.67;10.05;;;0.60;99.90;;;;;;5132828;27;20039;-83
2022/01/10 03:15:38;;;;;;;25.90;9.20;;;0.40;99.90;;;;;;5132473;27;20051;-83
2022/01/10 03:18:03;;;;;;;24.77;9.13;;;0.40;99.90;;;;;;5099548;27;20126;-83
2022/01/10 03:20:29;;;;;;;27.08;9.15;;;0.30;99.90;;;;;;5133680;27;20045;-83
2022/01/10 03:22:55;;;;;;;25.05;10.50;;;0.30;99.90;;;;;;5134083;27;20503;-83
2022/01/10 03:25:23;;;;;;;27.60;10.63;;;0.30;99.90;;;;;;5125692;27;20063;-83
2022/01/10 03:27:49;;;;;;;50.97;11.82;;;0.30;99.90;;;;;;5096316;28;20051;-83
2022/01/10 03:30:16;;;;;;;48.42;12.85;;;0.30;99.90;;;;;;5125004;27;20047;-83
2022/01/10 03:32:43;;;;;;;34.17;11.02;;;0.70;99.90;;;;;;5133386;27;20051;-83
2022/01/10 03:35:09;;;;;;;55.38;11.13;;;0.40;99.90;;;;;;5133311;27;20134;-83
2022/01/10 03:37:34;;;;;;;;;;;0.30;99.90;;;;;;5133698;27;20059;-83
2022/01/10 03:40:00;;;;;;;119.53;11.27;;;0.30;99.90;;;;;;5133392;27;19923;-83
2022/01/10 03:42:26;;;;;;;190.65;17.15;;;0.30;99.90;;;;;;5132924;27;20074;-83
2022/01/10 03:44:52;;;;;;;155.80;13.98;;;0.30;99.90;;;;;;5114996;27;20130;-83
2022/01/10 03:47:18;;;;;;;211.88;14.70;;;0.20;99.90;;;;;;5132671;27;20051;-83
2022/01/10 03:49:45;;;;;;;108.70;10.00;;;0.10;99.90;;;;;;5133451;27;20043;-83
2022/01/10 03:52:10;;;;;;;145.68;11.68;;;0.10;99.90;;;;;;5111463;28;20388;-82
2022/01/10 03:54:36;;;;;;;171.52;15.38;;;0.00;99.90;;;;;;5129444;27;20040;-83
2022/01/10 03:57:02;;;;;;;170.70;12.70;;;-0.10;99.90;;;;;;5108146;27;20129;-83
2022/01/10 03:59:28;;;;;;;150.07;13.68;;;-0.20;99.90;;;;;;5130076;27;20039;-83
2022/01/10 04:01:54;;;;;;;70.10;10.57;;;-0.30;99.90;;;;;;5132916;27;20058;-83
2022/01/10 04:04:20;;;;;;;277.92;19.85;;;-0.30;99.90;;;;;;5132654;27;20078;-82
2022/01/10 04:06:45;;;;;;;355.75;22.67;;;-0.30;99.90;;;;;;5133339;27;20047;-83
2022/01/10 04:09:11;;;;;;;347.70;21.17;;;-0.30;99.90;;;;;;5096273;27;20049;-82
2022/01/10 04:11:37;;;;;;;177.30;14.15;;;-0.30;99.90;;;;;;5095726;28;20044;-83
2022/01/10 04:14:03;;;;;;;45.88;8.82;;;-0.40;99.90;;;;;;5110921;28;20055;-82
2022/01/10 04:16:29;;;;;;;121.78;12.38;;;-0.50;99.90;;;;;;5102785;27;20661;-83
2022/01/10 04:18:54;;;;;;;223.52;13.98;;;-0.40;99.90;;;;;;5132789;27;20046;-83
2022/01/10 04:21:20;;;;;;;292.48;20.30;;;-0.50;99.90;;;;;;5132203;27;20051;-83
2022/01/10 04:23:46;;;;;;;483.88;30.13;;;-0.50;99.90;;;;;;5132556;27;20170;-83
2022/01/10 04:26:12;;;;;;;253.48;16.65;;;-0.50;99.90;;;;;;5115094;27;20201;-82
2022/01/10 04:28:37;;;;;;;315.13;21.92;;;-0.50;99.90;;;;;;5131236;27;20051;-83
2022/01/10 04:31:04;;;;;;;303.15;23.02;;;0.30;99.90;;;;;;5132584;27;20047;-82
2022/01/10 04:33:30;;;;;;;145.13;13.45;;;-0.50;99.90;;;;;;5128987;27;20046;-83
2022/01/10 04:35:57;;;;;;;226.45;16.15;;;-0.60;99.90;;;;;;5128023;27;20563;-83
2022/01/10 04:38:24;;;;;;;237.38;17.23;;;-0.60;99.90;;;;;;5135322;27;20079;-83
2022/01/10 04:40:50;;;;;;;95.53;10.40;;;-0.60;99.90;;;;;;5135467;27;20384;-83
2022/01/10 04:43:16;;;;;;;174.18;14.43;;;-0.60;99.90;;;;;;5134940;27;20053;-82
2022/01/10 04:45:42;;;;;;;185.00;16.00;;;-0.70;99.90;;;;;;5134615;27;20043;-82
2022/01/10 04:48:09;;;;;;;133.10;13.10;;;-0.70;99.90;;;;;;5135252;27;20065;-83
2022/01/10 04:53:01;;;;;;;205.13;17.20;;;-0.70;99.90;;;;;;5135655;27;20047;-83
2022/01/10 04:55:27;;;;;;;183.02;13.00;;;-0.70;99.90;;;;;;5134232;27;20042;-83
2022/01/10 04:57:52;;;;;;;133.32;14.05;;;-0.70;99.90;;;;;;5135303;27;20046;-83
2022/01/10 05:00:18;;;;;;;101.95;10.52;;;-0.80;99.90;;;;;;5133033;27;20087;-83
2022/01/10 05:02:46;;;;;;;107.47;12.10;;;-0.70;99.90;;;;;;5134141;27;20054;-83
2022/01/10 05:05:12;;;;;;;183.65;15.23;;;-0.70;99.90;;;;;;5135252;27;20031;-83
2022/01/10 05:07:38;;;;;;;;;;;-0.80;99.90;;;;;;5135378;27;20113;-82
2022/01/10 05:10:04;;;;;;;193.23;15.73;;;-0.80;99.90;;;;;;5134920;27;20261;-83
2022/01/10 05:12:30;;;;;;;;;;;-0.80;99.90;;;;;;5118065;27;20046;-83
2022/01/10 05:14:55;;;;;;;276.50;21.80;;;0.10;99.90;;;;;;5133514;27;20392;-83
2022/01/10 05:17:24;;;;;;;173.30;17.67;;;-0.80;99.90;;;;;;5113474;27;20096;-83
2022/01/10 05:19:49;;;;;;;142.18;15.93;;;-0.70;99.90;;;;;;5116173;27;20046;-83
2022/01/10 05:22:15;;;;;;;244.30;19.08;;;-0.90;99.90;;;;;;5128406;27;20546;-83
2022/01/10 05:24:41;;;;;;;80.90;13.77;;;-0.90;99.90;;;;;;5134400;27;20039;-83
2022/01/10 05:27:07;;;;;;;101.85;14.57;;;-0.90;99.90;;;;;;5135038;27;20479;-83
2022/01/10 05:29:32;;;;;;;169.25;19.23;;;-0.90;99.90;;;;;;5132781;27;20050;-83
2022/01/10 05:31:58;;;;;;;127.15;16.55;;;-0.80;99.90;;;;;;5152506;27;20099;-83
2022/01/10 05:34:24;;;;;;;116.82;18.30;;;-0.80;99.90;;;;;;5099637;27;20042;-83
2022/01/10 05:36:50;;;;;;;99.45;19.13;;;-0.80;99.90;;;;;;5117477;27;20051;-83
2022/01/10 05:39:16;;;;;;;86.90;18.98;;;-0.70;99.90;;;;;;5134362;27;20054;-83
2022/01/10 05:41:42;;;;;;;95.25;16.80;;;-0.70;99.90;;;;;;5133984;27;20035;-83
2022/01/10 05:44:07;;;;;;;123.70;19.38;;;-0.20;99.90;;;;;;5116164;27;20552;-83
2022/01/10 05:46:36;;;;;;;172.10;20.20;;;-0.70;99.90;;;;;;5113082;27;20074;-83
2022/01/10 05:49:03;;;;;;;156.32;21.60;;;-0.70;99.90;;;;;;5096990;27;20047;-82
2022/01/10 05:51:34;;;;;;;221.07;24.88;;;-0.10;99.90;;;;;;5100140;27;20053;-83
2022/01/10 05:54:01;;;;;;;195.55;21.83;;;-0.70;99.90;;;;;;5134121;27;20065;-83
2022/01/10 05:56:27;;;;;;;259.02;26.10;;;-0.70;99.90;;;;;;5133909;27;20082;-83
2022/01/10 05:58:53;;;;;;;300.38;27.80;;;-0.70;99.90;;;;;;5132902;27;20078;-82
2022/01/10 06:01:19;;;;;;;360.75;32.92;;;-0.70;99.90;;;;;;5116715;27;20046;-82
2022/01/10 06:03:44;;;;;;;350.10;30.15;;;-0.70;99.90;;;;;;5116469;27;20039;-83
2022/01/10 06:06:10;;;;;;;277.40;26.38;;;-0.80;99.90;;;;;;5134285;27;20471;-83
2022/01/10 06:08:36;;;;;;;240.18;23.50;;;0.10;99.90;;;;;;5133505;27;20467;-83
2022/01/10 06:11:02;;;;;;;358.52;33.38;;;-0.90;99.90;;;;;;5133714;27;20483;-83
2022/01/10 06:13:27;;;;;;;249.43;26.52;;;-0.90;99.90;;;;;;5132251;27;20055;-83
2022/01/10 06:15:53;;;;;;;326.55;29.15;;;-0.90;99.90;;;;;;5116191;27;20129;-83
2022/01/10 06:18:19;;;;;;;208.23;23.77;;;-0.90;99.90;;;;;;5116584;27;20050;-83
2022/01/10 06:20:45;;;;;;;164.13;22.63;;;-0.90;99.90;;;;;;5133370;27;20179;-83
2022/01/10 06:23:11;;;;;;;130.57;20.30;;;-1.00;99.90;;;;;;5134209;27;20043;-83
2022/01/10 06:25:39;;;;;;;119.97;20.80;;;-1.00;99.90;;;;;;5116112;27;20135;-83
2022/01/10 06:28:05;;;;;;;71.20;17.67;;;-1.00;99.90;;;;;;5116937;27;20443;-82
2022/01/10 06:30:31;;;;;;;146.68;20.70;;;-1.00;99.90;;;;;;5112343;27;20042;-84
2022/01/10 06:32:57;;;;;;;185.60;24.30;;;-1.00;99.90;;;;;;5133548;27;20050;-83
2022/01/10 06:35:23;;;;;;;;;;;-1.10;99.90;;;;;;5117132;27;20050;-83
2022/01/10 06:37:49;;;;;;;188.48;24.52;;;-1.00;99.90;;;;;;5133204;27;20381;-84
2022/01/10 06:40:15;;;;;;;72.53;22.30;;;-1.00;99.90;;;;;;5133648;27;20050;-83
2022/01/10 06:42:41;;;;;;;123.45;21.27;;;-1.00;99.90;;;;;;5133438;27;20437;-84
2022/01/10 06:45:09;;;;;;;96.68;17.60;;;-1.00;99.90;;;;;;5132455;27;20050;-84
2022/01/10 06:47:34;;;;;;;161.50;23.63;;;-1.00;99.90;;;;;;5132952;27;20050;-84
2022/01/10 06:50:00;;;;;;;84.53;18.23;;;-1.00;99.90;;;;;;5132877;27;20069;-83
2022/01/10 06:52:26;;;;;;;95.43;21.15;;;-1.10;99.90;;;;;;5133496;27;20051;-83
2022/01/10 06:54:51;;;;;;;162.80;25.65;;;-1.10;99.90;;;;;;5133183;27;20111;-84
2022/01/10 06:57:18;;;;;;;78.15;19.67;;;-1.20;99.90;;;;;;5116599;27;20476;-84
2022/01/10 06:59:43;;;;;;;123.22;21.02;;;-1.10;99.90;;;;;;5131522;27;20054;-83
2022/01/10 07:02:09;;;;;;;157.88;25.02;;;-1.10;99.90;;;;;;5115954;27;20038;-84
2022/01/10 07:04:35;;;;;;;92.45;21.15;;;-1.10;99.90;;;;;;5132952;27;20586;-83
2022/01/10 07:07:00;;;;;;;55.22;21.40;;;-1.10;99.90;;;;;;5112570;27;20095;-84
2022/01/10 07:09:26;;;;;;;93.57;22.88;;;-1.20;99.90;;;;;;5115635;27;20065;-82
2022/01/10 07:11:52;;;;;;;90.53;18.02;;;-1.20;99.90;;;;;;5116291;27;20110;-83
2022/01/10 07:14:18;;;;;;;84.78;19.15;;;-1.10;99.90;;;;;;5111915;27;20047;-84
2022/01/10 07:16:44;;;;;;;75.65;19.08;;;-1.20;99.90;;;;;;5113160;28;20070;-84
2022/01/10 07:19:10;;;;;;;94.88;24.88;;;-1.20;99.90;;;;;;5112739;28;20255;-84
2022/01/10 07:21:38;;;;;;;100.07;23.13;;;-1.10;99.90;;;;;;5112458;27;20135;-84
2022/01/10 07:24:05;;;;;;;253.15;32.35;;;-1.00;99.90;;;;;;5095708;28;20047;-83
2022/01/10 07:26:32;;;;;;;180.40;25.90;;;-1.10;99.90;;;;;;5113206;27;20050;-83
2022/01/10 07:28:58;;;;;;;381.27;38.67;;;-1.10;99.90;;;;;;5098112;27;20078;-84
2022/01/10 07:31:24;;;;;;;162.20;24.85;;;-1.10;99.90;;;;;;5116003;27;20055;-83
2022/01/10 07:33:50;;;;;;;144.95;23.55;;;-1.10;99.90;;;;;;5098663;27;20068;-82
2022/01/10 07:36:15;;;;;;;;;;;-1.00;99.90;;;;;;5117507;27;20039;-83
2022/01/10 07:38:41;;;;;;;79.05;20.38;;;-1.10;99.90;;;;;;5135592;27;19919;-83
2022/01/10 07:41:08;;;;;;;78.63;21.50;;;-1.10;99.90;;;;;;5118282;27;20071;-82
2022/01/10 07:43:34;;;;;;;74.32;21.65;;;-1.10;99.90;;;;;;5135303;27;20050;-83
2022/01/10 07:46:01;;;;;;;72.28;22.45;;;0.20;99.90;;;;;;5119741;27;20055;-83
2022/01/10 07:48:29;;;;;;;120.22;25.20;;;-0.20;99.90;;;;;;5119283;27;20097;-82
2022/01/10 07:50:55;;;;;;;73.70;23.10;;;-0.70;99.90;;;;;;5136722;27;20138;-82
2022/01/10 07:53:21;;;;;;;;;;;-1.00;99.90;;;;;;5116344;27;20059;-82
2022/01/10 07:55:47;;;;;;;42.80;19.13;;;-1.10;99.90;;;;;;5135998;27;19980;-83
2022/01/10 07:58:13;;;;;;;47.67;21.17;;;-1.10;99.90;;;;;;5119364;27;20053;-84
2022/01/10 08:00:38;;;;;;;49.10;22.17;;;-1.10;99.90;;;;;;5134637;27;20207;-84
2022/01/10 08:03:04;;;;;;;52.35;21.77;;;-1.10;99.90;;;;;;5132285;27;20113;-83
2022/01/10 08:05:30;;;;;;;47.83;19.02;;;-1.10;99.90;;;;;;5117465;27;20129;-84
2022/01/10 08:07:56;;;;;;;85.72;20.55;;;-1.10;99.90;;;;;;5132525;27;20042;-83
2022/01/10 08:10:22;;;;;;;;;;;-0.40;99.90;;;;;;5118081;27;20053;-84
2022/01/10 08:12:47;;;;;;;60.38;21.25;;;-1.20;99.90;;;;;;5134751;27;19919;-84
2022/01/10 08:15:14;;;;;;;56.72;21.17;;;-1.20;99.90;;;;;;5113807;27;20475;-84
2022/01/10 08:17:40;;;;;;;67.38;23.35;;;-0.70;99.90;;;;;;5114438;27;20475;-84
2022/01/10 08:20:07;;;;;;;61.90;22.88;;;-1.10;99.90;;;;;;5134524;27;20049;-84
2022/01/10 08:22:33;;;;;;;65.82;24.02;;;-1.10;99.90;;;;;;5135166;27;20049;-84
2022/01/10 08:24:59;;;;;;;52.35;21.77;;;-1.00;99.90;;;;;;5113495;27;20912;-84
2022/01/10 08:27:26;;;;;;;57.17;21.95;;;-1.00;99.90;;;;;;5111101;27;20045;-84
2022/01/10 08:29:51;;;;;;;65.25;21.83;;;-1.00;99.90;;;;;;5113233;27;20046;-84
2022/01/10 08:32:18;;;;;;;76.45;24.95;;;-0.60;99.90;;;;;;5080993;27;20046;-84
2022/01/10 08:34:44;;;;;;;75.38;26.13;;;-1.00;99.90;;;;;;5125672;27;20070;-84
2022/01/10 08:37:10;;;;;;;87.90;28.73;;;-1.00;99.90;;;;;;5135631;27;20484;-83
2022/01/10 08:39:35;;;;;;;;;;;-0.90;99.90;;;;;;5118421;27;20138;-84
2022/01/10 08:42:01;;;;;;;77.18;26.42;;;-0.50;99.90;;;;;;5118976;27;20346;-85
2022/01/10 08:44:27;;;;;;;85.63;31.10;;;-0.80;99.90;;;;;;5133228;27;20102;-84
2022/01/10 08:46:53;;;;;;;89.10;29.83;;;-0.80;99.90;;;;;;5134683;27;20078;-84
2022/01/10 08:49:19;;;;;;;;;;;-0.80;99.90;;;;;;5135903;27;20389;-84
2022/01/10 08:51:45;;;;;;;95.90;31.25;;;-0.80;99.90;;;;;;5112278;27;19940;-84
2022/01/10 08:54:11;;;;;;;90.32;30.90;;;-0.70;99.90;;;;;;5113092;27;20692;-84
2022/01/10 08:56:37;;;;;;;;;;;-0.70;99.90;;;;;;5129750;27;20515;-86
2022/01/10 08:59:05;;;;;;;96.43;29.23;;;-0.70;99.90;;;;;;5121102;27;19930;-84
2022/01/10 09:01:32;;;;;;;75.75;28.48;;;-0.60;99.90;;;;;;5129496;27;20050;-82
2022/01/10 09:03:58;;;;;;;88.90;30.00;;;-0.60;99.90;;;;;;5128981;27;20133;-86
2022/01/10 09:06:24;;;;;;;74.47;29.13;;;-0.60;99.90;;;;;;5116024;27;20559;-82
2022/01/10 09:08:51;;;;;;;76.50;28.50;;;-0.60;99.90;;;;;;5118314;27;20508;-83
2022/01/10 09:11:18;;;;;;;90.85;30.67;;;-0.50;99.90;;;;;;5118732;27;20046;-81
2022/01/10 09:13:44;;;;;;;84.88;31.27;;;-0.50;99.90;;;;;;5133432;27;20080;-82
2022/01/10 09:16:11;;;;;;;;;;;0.20;99.90;;;;;;5119022;27;20137;-82
2022/01/10 09:18:38;;;;;;;77.97;29.58;;;-0.40;99.90;;;;;;5136426;27;19919;-81
2022/01/10 09:21:04;;;;;;;95.07;30.58;;;-0.40;99.90;;;;;;5136423;27;20046;-81
2022/01/10 09:23:30;;;;;;;91.25;31.38;;;-0.30;99.90;;;;;;5115041;27;20522;-83
2022/01/10 09:25:56;;;;;;;91.28;31.05;;;-0.30;99.90;;;;;;5098212;27;20130;-83
2022/01/10 09:28:22;;;;;;;80.53;29.50;;;-0.10;99.90;;;;;;5097798;27;20053;-84
2022/01/10 09:30:48;;;;;;;76.80;29.90;;;-0.20;99.90;;;;;;5117734;27;20070;-83
2022/01/10 09:33:14;;;;;;;;;;;-0.20;99.90;;;;;;5136244;27;20035;-83
2022/01/10 09:35:42;;;;;;;80.05;28.75;;;-0.10;99.90;;;;;;5112318;27;19923;-86
2022/01/10 09:38:10;;;;;;;83.65;30.10;;;-0.10;99.90;;;;;;5102465;27;20100;-84
2022/01/10 09:40:36;;;;;;;60.95;22.23;;;-0.10;99.90;;;;;;5114347;27;20079;-84
2022/01/10 09:43:03;;;;;;;73.78;22.33;;;0.00;99.90;;;;;;5103811;27;20043;-83
2022/01/10 09:45:30;;;;;;;51.83;22.38;;;0.30;99.90;;;;;;5096293;27;20051;-83
2022/01/10 09:47:55;;;;;;;56.70;23.23;;;0.00;99.90;;;;;;5123592;27;20046;-83
2022/01/10 09:50:21;;;;;;;73.32;28.30;;;0.00;99.90;;;;;;5134492;27;20471;-83
2022/01/10 09:52:49;;;;;;;74.47;29.10;;;0.00;99.90;;;;;;5135289;27;20554;-84
2022/01/10 09:55:16;;;;;;;74.60;30.65;;;0.00;99.90;;;;;;5118366;27;20123;-83
2022/01/10 09:57:42;;;;;;;74.65;30.23;;;0.10;99.90;;;;;;5101849;27;20043;-83
2022/01/10 10:00:11;;;;;;;78.72;32.80;;;0.10;99.90;;;;;;5134760;27;20129;-83
2022/01/10 10:02:40;;;;;;;82.18;31.63;;;0.20;99.90;;;;;;5132447;27;20125;-83
2022/01/10 10:05:09;;;;;;;76.10;33.00;;;0.30;99.90;;;;;;5097964;27;20050;-81
2022/01/10 10:07:40;;;;;;;71.60;31.35;;;0.30;99.90;;;;;;5115213;27;20058;-83
2022/01/10 10:10:11;;;;;;;81.18;31.05;;;0.50;99.90;;;;;;5119814;27;20084;-82
2022/01/10 10:12:39;;;;;;;74.40;32.72;;;0.50;99.90;;;;;;5118098;27;20047;-81
2022/01/10 10:15:07;;;;;;;77.00;32.60;;;0.60;99.90;;;;;;5133987;27;20043;-79
2022/01/10 10:17:34;;;;;;;75.47;33.10;;;0.60;99.90;;;;;;5117714;27;20104;-82
2022/01/10 10:20:05;;;;;;;78.22;33.42;;;0.70;99.90;;;;;;5132115;27;20038;-80
2022/01/10 10:22:31;;;;;;;84.95;33.83;;;0.80;99.90;;;;;;5118746;27;20042;-80
2022/01/10 10:24:56;;;;;;;79.00;34.90;;;0.80;99.90;;;;;;5135359;27;20047;-81
2022/01/10 10:27:24;;;;;;;73.45;33.40;;;0.90;99.90;;;;;;5117901;27;20046;-82
2022/01/10 10:29:49;;;;;;;83.70;34.45;;;1.00;99.90;;;;;;5131272;27;20118;-81
2022/01/10 10:32:15;;;;;;;86.40;36.83;;;1.80;99.90;;;;;;5135110;27;20129;-81
2022/01/10 10:34:42;;;;;;;77.63;35.30;;;1.20;99.90;;;;;;5118268;27;20038;-81
2022/01/10 10:37:10;;;;;;;81.63;35.55;;;1.20;99.90;;;;;;5107785;28;20109;-82
2022/01/10 10:39:39;;;;;;;77.07;35.97;;;1.40;99.90;;;;;;5126228;28;20160;-81
2022/01/10 10:42:07;;;;;;;74.47;34.67;;;1.40;99.90;;;;;;5124300;28;20103;-81
2022/01/10 10:44:33;;;;;;;84.22;35.60;;;1.40;99.90;;;;;;5130798;28;20104;-80
2022/01/10 10:47:00;;;;;;;80.05;36.47;;;1.90;99.90;;;;;;5113739;28;20047;-82
2022/01/10 10:49:32;;;;;;;;;;;1.60;99.90;;;;;;5109375;28;20114;-81
2022/01/10 10:52:00;;;;;;;72.57;33.97;;;1.70;99.90;;;;;;5122843;28;20002;-82
2022/01/10 10:54:31;;;;;;;76.65;35.50;;;1.80;99.90;;;;;;5119373;28;20043;-77
2022/01/10 10:56:59;;;;;;;75.78;36.13;;;2.00;99.90;;;;;;5119455;28;20443;-77
2022/01/10 10:59:29;;;;;;;72.32;35.97;;;1.90;99.90;;;;;;5118815;28;20048;-77
2022/01/10 11:01:56;;;;;;;68.07;33.92;;;2.00;99.90;;;;;;5123115;27;20047;-78
2022/01/10 11:04:21;;;;;;;80.63;36.20;;;2.10;99.90;;;;;;5121501;27;20105;-78
2022/01/10 11:06:47;;;;;;;83.40;34.97;;;2.70;99.90;;;;;;5126794;27;20078;-78
2022/01/10 11:09:14;;;;;;;69.05;32.72;;;2.30;99.90;;;;;;5131729;27;20162;-78
2022/01/10 11:11:41;;;;;;;63.35;32.45;;;2.40;99.90;;;;;;5135172;27;20596;-78
2022/01/10 11:14:09;;;;;;;62.35;31.83;;;2.50;99.90;;;;;;5115037;27;20491;-78
2022/01/10 11:16:37;;;;;;;61.50;30.95;;;2.80;99.90;;;;;;5114376;28;20480;-79
2022/01/10 11:19:14;;;;;;;44.42;22.80;;;3.20;99.90;;;;;;5080541;28;20055;-81
2022/01/10 11:21:44;;;;;;;45.63;22.52;;;3.00;99.90;;;;;;5115361;27;20123;-78
2022/01/10 11:24:10;;;;;;;50.08;22.52;;;3.70;99.90;;;;;;5124891;27;20059;-78
2022/01/10 11:26:38;;;;;;;33.90;19.58;;;3.20;99.90;;;;;;5117667;27;20051;-78
2022/01/10 11:29:07;;;;;;;30.58;17.38;;;4.30;99.90;;;;;;5132837;27;20058;-79
2022/01/10 11:31:36;;;;;;;33.33;15.82;;;4.00;99.90;;;;;;5117066;27;20150;-79
2022/01/10 11:34:03;;;;;;;30.77;16.15;;;4.40;99.90;;;;;;5115092;27;20046;-79
2022/01/10 11:36:29;;;;;;;24.92;14.25;;;4.70;99.90;;;;;;5129537;27;20095;-79
2022/01/10 11:39:09;;;;;;;28.80;15.23;;;5.00;99.90;;;;;;5097601;28;20048;-84
2022/01/10 11:41:35;;;;;;;27.80;13.75;;;5.30;99.90;;;;;;5120649;27;20050;-80
2022/01/10 11:44:06;;;;;;;24.20;12.38;;;5.70;99.90;;;;;;5112720;27;20044;-80
2022/01/10 11:46:42;;;;;;;23.48;12.60;;;5.70;99.90;;;;;;5107314;28;20416;-81
2022/01/10 11:49:17;;;;;;;28.95;13.75;;;5.80;99.90;;;;;;5117857;27;20099;-80
2022/01/10 11:51:49;;;;;;;27.17;13.18;;;6.00;99.90;;;;;;5115189;27;20058;-80
2022/01/10 11:54:18;;;;;;;24.98;11.95;;;6.30;99.90;;;;;;5112869;27;20036;-81
2022/01/10 11:56:46;;;;;;;23.52;11.63;;;6.60;99.90;;;;;;5116957;27;20487;-81
2022/01/10 11:59:19;;;;;;;23.88;11.48;;;6.80;99.90;;;;;;5113302;27;20544;-80
2022/01/10 12:01:46;;;;;;;19.45;11.30;;;7.10;99.90;;;;;;5102004;28;20098;-81
2022/01/10 12:04:12;;;;;;;22.15;11.23;;;7.10;99.90;;;;;;5098894;28;20048;-80
2022/01/10 12:06:38;;;;;;;23.17;10.68;;;7.00;99.90;;;;;;5104205;28;20062;-80
2022/01/10 12:09:04;;;;;;;;;;;7.00;99.90;;;;;;5078016;28;20051;-82
2022/01/10 12:11:32;;;;;;;19.83;10.88;;;7.10;99.90;;;;;;5092196;28;19928;-81
2022/01/10 12:14:00;;;;;;;19.65;10.63;;;7.10;99.90;;;;;;5092219;28;20077;-80
2022/01/10 12:16:27;;;;;;;17.33;10.38;;;7.30;99.90;;;;;;5104851;28;20080;-80
2022/01/10 12:18:54;;;;;;;21.27;9.75;;;7.30;99.90;;;;;;5104381;28;20131;-79
2022/01/10 12:21:20;;;;;;;24.75;11.38;;;7.30;99.90;;;;;;5102462;28;20204;-80
2022/01/10 12:23:47;;;;;;;19.40;10.63;;;7.30;99.90;;;;;;5106752;28;20055;-80
2022/01/10 12:26:13;;;;;;;21.65;10.60;;;7.40;99.90;;;;;;5092368;28;20437;-83
2022/01/10 12:28:39;;;;;;;22.25;10.98;;;7.40;99.90;;;;;;5110721;28;20147;-83
2022/01/10 12:31:06;;;;;;;23.33;10.88;;;7.40;99.90;;;;;;5094210;28;20071;-84
2022/01/10 12:33:32;;;;;;;;;;;7.40;99.90;;;;;;5091645;28;20055;-83
2022/01/10 12:35:58;;;;;;;19.53;11.63;;;7.50;99.90;;;;;;5091827;28;20307;-84
2022/01/10 12:38:24;;;;;;;22.55;11.55;;;7.60;99.90;;;;;;5097817;27;20300;-83
2022/01/10 12:40:53;;;;;;;;;;;7.80;99.90;;;;;;5118092;27;20043;-83
2022/01/10 12:43:19;;;;;;;20.10;11.88;;;7.90;99.90;;;;;;5117805;27;20009;-83
2022/01/10 12:45:46;;;;;;;20.63;12.30;;;8.10;99.90;;;;;;5134552;27;20137;-83
2022/01/10 12:48:13;;;;;;;21.88;12.18;;;8.20;99.90;;;;;;5134425;27;20045;-83